CDT,Max TemperatureF,Mean TemperatureF,Min TemperatureF,Max Dew PointF,MeanDew PointF,Min DewpointF,Max Humidity, Mean Humidity, Min Humidity, Max Sea Level PressureIn, Mean Sea Level PressureIn, Min Sea Level PressureIn, Max VisibilityMiles, Mean VisibilityMiles, Min VisibilityMiles, Max Wind SpeedMPH, Mean Wind SpeedMPH, Max Gust SpeedMPH,PrecipitationIn, CloudCover, Events, WindDirDegrees
2012-3-1,66,52,37,37,33,30,81,49,28,29.94,29.88,29.74,10,10,10,13,7,21,0.00,0,,241
2012-3-2,73,57,41,63,49,32,88,71,58,29.82,29.55,29.32,10,10,7,41,13,51,0.03,3,Rain-Thunderstorm,217
2012-3-3,50,41,32,32,29,23,100,67,35,29.94,29.89,29.85,10,10,10,21,9,28,0.00,1,,266
2012-3-4,50,40,30,32,28,25,93,67,40,29.98,29.94,29.90,10,10,10,17,4,23,0.00,4,Rain,289
2012-3-5,46,38,30,34,26,21,87,64,37,30.47,30.33,29.99,10,10,10,24,11,31,0.00,3,,309
2012-3-6,69,52,35,36,30,25,75,43,27,30.33,30.25,30.14,10,10,10,23,11,30,0.00,0,,180
2012-3-7,69,62,55,48,38,28,52,41,31,30.23,30.16,30.08,10,10,10,25,19,37,0.00,2,,189
2012-3-8,68,52,37,61,46,32,100,81,56,30.33,30.15,29.99,10,8,2,20,14,37,1.06,6,Rain-Thunderstorm,286
2012-3-9,53,42,32,34,29,21,100,60,28,30.50,30.47,30.39,10,10,10,20,6,25,0.00,0,,336
2012-3-10,46,37,30,30,28,27,93,78,53,30.51,30.50,30.48,10,10,10,12,2,,0.00,0,,248
2012-3-10,,,,,,,,,,,,,,,,,,,,,,
2012-3-12,,,,,,,,,,,,,,,,,,,,,,
2012-3-13,77,67,57,55,55,52,88,69,41,30.12,30.10,30.07,10,10,10,12,6,,0.00,0,,198
2012-3-14,82,68,53,63,59,54,100,77,51,30.16,30.10,30.04,10,8,2,17,4,25,0.00,1,,202
2012-3-15,75,68,60,64,62,57,100,84,64,30.17,30.12,30.06,10,10,7,14,8,22,0.06,1,Rain-Thunderstorm,207
2012-3-16,73,65,57,61,57,55,100,78,53,30.14,30.09,30.06,10,10,10,16,6,,0.04,2,Rain,198
2012-3-17,80,68,55,64,59,55,100,79,47,30.13,30.09,30.03,10,8,0,16,4,22,0.00,2,Fog-Thunderstorm,193
2012-3-18,80,66,53,63,58,54,100,73,44,30.15,30.08,30.03,10,10,7,17,6,23,0.00,1,,202
2012-3-19,82,71,60,63,57,46,88,64,32,30.09,30.01,29.94,10,10,10,16,6,23,0.00,0,,162
2012-3-20,86,74,62,57,55,52,77,53,31,30.05,29.99,29.92,10,10,7,26,10,32,0.00,1,,147
2012-3-21,82,72,62,55,55,52,77,53,37,30.08,30.02,29.96,10,10,10,22,9,26,0.00,1,,135
2012-3-22,73,68,62,63,60,55,100,81,53,30.11,30.02,29.98,10,9,3,17,9,21,0.37,6,Rain,140
2012-3-23,69,62,55,63,57,45,100,86,52,30.01,29.90,29.80,10,7,0,17,4,26,0.18,4,Fog-Rain-Thunderstorm,184
2012-3-24,66,58,50,54,50,46,100,78,56,29.89,29.86,29.81,10,10,5,12,4,9,0.02,5,Rain-Thunderstorm,290
2012-3-25,69,60,50,57,54,50,100,80,60,30.03,29.99,29.92,10,9,5,12,4,,0.00,4,,357
2012-3-26,73,60,48,59,51,46,100,74,41,30.20,30.13,30.06,10,7,0,10,3,,0.00,2,Fog,62
2012-3-27,77,62,48,52,42,37,71,51,29,30.20,30.13,29.99,10,10,10,15,9,16,0.00,0,,139
2012-3-28,78,70,62,63,57,54,83,64,42,30.02,29.99,29.95,10,10,7,15,7,21,0.00,2,Rain,261
2012-3-29,77,66,55,59,52,45,100,61,41,30.00,29.94,29.87,10,10,7,10,4,,0.00,1,,77
2012-3-30,78,66,55,61,57,52,94,68,47,29.87,29.81,29.73,10,10,7,20,6,26,0.00,0,Thunderstorm,211
2012-3-31,73,63,53,63,56,52,100,80,50,29.91,29.86,29.80,10,5,0,9,3,,0.00,0,Fog,35